Eikamaru No.2 — JD3056 — position and weather

sailwx.info

Track history (hours):
 
Tides and Currents Weather Stations Pressure Air Temp Water Temp Dewpoint Dewpoint Depression Visibility Wind Speed Wind Dir Waves Ship Positions

Eikamaru No.2

Last reported at 2014-Oct-25 16:33 UTC. Time now 2014-Oct-25 22:08 UTC.
Position N 35°37' E 139°58'.

Length 60 m; draft 3.3 m.

Type: Tanker. MMSI: 431001342.

Date/timePositionNaut miles runAvg speedWind from/ knotsBaromVisibWave heightAir tempDewpointWater temp
2014-Oct-25 16:33N 35°37' E 139°58'0 0.0
2014-Oct-25 15:30N 35°37' E 139°57'1111.6
2014-Oct-25 14:33N 35°27' E 139°50'1110.9
2014-Oct-25 13:33N 35°17' E 139°45'1211.3
2014-Oct-25 12:32N 35°06' E 139°46'10 0.3
2014-Oct-24 04:23N 35°16' E 139°46'910.6
2014-Oct-24 03:33N 35°25' E 139°43'1211.7
2014-Oct-24 02:30N 35°32' E 139°56'8 0.2
2014-Oct-22 06:33N 35°28' E 139°47'8 7.9
2014-Oct-22 05:33N 35°22' E 139°40'0 0.0
2014-Oct-22 04:33N 35°22' E 139°40'0 0.0
2014-Oct-22 03:33N 35°22' E 139°40'0 0.0
2014-Oct-22 02:33N 35°22' E 139°40'0 0.0
2014-Oct-22 01:33N 35°22' E 139°40'0 0.0
2014-Oct-22 00:33N 35°22' E 139°40'0 0.0
2014-Oct-21 23:33N 35°22' E 139°40'0 0.1
2014-Oct-21 22:33N 35°22' E 139°40'0 0.0
2014-Oct-21 21:33N 35°22' E 139°40'0 0.0
2014-Oct-21 20:33N 35°22' E 139°40'0 0.0
2014-Oct-21 19:33N 35°22' E 139°40'0 0.0
2014-Oct-21 18:33N 35°23' E 139°40'0 0.0
2014-Oct-21 17:33N 35°23' E 139°40'0 0.0
2014-Oct-21 16:33N 35°23' E 139°40'0 0.4
2014-Oct-21 15:33N 35°22' E 139°40'1211.8
2014-Oct-21 14:31N 35°11' E 139°47'4 0.1
2014-Oct-20 08:28N 35°15' E 139°46'1010.8
2014-Oct-20 07:33N 35°25' E 139°44'1211.5
2014-Oct-20 06:31N 35°32' E 139°56'8 1.2
2014-Oct-19 23:26N 35°36' E 140°05'5 4.6
2014-Oct-19 22:25N 35°33' E 140°01'0 0.0
2014-Oct-19 21:33N 35°33' E 140°01'7 7.2
2014-Oct-19 20:33N 35°29' E 139°53'1111.4
2014-Oct-19 19:33N 35°20' E 139°45'1110.7
2014-Oct-19 18:33N 35°10' E 139°46'5 0.1
2014-Oct-18 05:21N 35°14' E 139°46'911.8
2014-Oct-18 04:33N 35°23' E 139°42'1211.7
2014-Oct-18 03:32N 35°31' E 139°54'6 1.2
2014-Oct-17 22:17N 35°33' E 140°01'0 0.1
2014-Oct-17 21:31N 35°33' E 140°01'0 0.1
2014-Oct-17 20:32N 35°33' E 140°01'0 0.0
2014-Oct-17 19:27N 35°33' E 140°01'0 0.0
2014-Oct-17 18:27N 35°33' E 140°01'0 0.0
2014-Oct-17 17:33N 35°33' E 140°01'5 2.1
2014-Oct-17 15:11N 35°31' E 139°56'711.5
2014-Oct-17 14:33N 35°26' E 139°49'10 9.9
2014-Oct-17 13:33N 35°17' E 139°46'1 0.0
2014-Oct-16 07:32N 35°15' E 139°46'1010.3
2014-Oct-16 06:32N 35°26' E 139°45'5 5.3
2014-Oct-16 05:33N 35°29' E 139°49'0 0.0
2014-Oct-16 04:33N 35°29' E 139°49'3 2.5
2014-Oct-16 03:31N 35°31' E 139°52'  
Track history (hours):
 
Tides and Currents Weather Stations Pressure Air Temp Water Temp Dewpoint Dewpoint Depression Visibility Wind Speed Wind Dir Waves Ship Positions

Eikamaru No.2

Last reported at 2014-Oct-25 16:33 UTC. Time now 2014-Oct-25 22:08 UTC.
Position N 35°37' E 139°58'.

Length 60 m; draft 3.3 m.

Type: Tanker. MMSI: 431001342.

Date/timePositionNaut miles runAvg speedWind from/ knotsBaromVisibWave heightAir tempDewpointWater temp
2014-Oct-25 16:33N 35°37' E 139°58'0 0.0
2014-Oct-25 15:30N 35°37' E 139°57'1111.6
2014-Oct-25 14:33N 35°27' E 139°50'1110.9
2014-Oct-25 13:33N 35°17' E 139°45'1211.3
2014-Oct-25 12:32N 35°06' E 139°46'10 0.3
2014-Oct-24 04:23N 35°16' E 139°46'910.6
2014-Oct-24 03:33N 35°25' E 139°43'1211.7
2014-Oct-24 02:30N 35°32' E 139°56'8 0.2
2014-Oct-22 06:33N 35°28' E 139°47'8 7.9
2014-Oct-22 05:33N 35°22' E 139°40'0 0.0
2014-Oct-22 04:33N 35°22' E 139°40'0 0.0
2014-Oct-22 03:33N 35°22' E 139°40'0 0.0
2014-Oct-22 02:33N 35°22' E 139°40'0 0.0
2014-Oct-22 01:33N 35°22' E 139°40'0 0.0
2014-Oct-22 00:33N 35°22' E 139°40'0 0.0
2014-Oct-21 23:33N 35°22' E 139°40'0 0.1
2014-Oct-21 22:33N 35°22' E 139°40'0 0.0
2014-Oct-21 21:33N 35°22' E 139°40'0 0.0
2014-Oct-21 20:33N 35°22' E 139°40'0 0.0
2014-Oct-21 19:33N 35°22' E 139°40'0 0.0
2014-Oct-21 18:33N 35°23' E 139°40'0 0.0
2014-Oct-21 17:33N 35°23' E 139°40'0 0.0
2014-Oct-21 16:33N 35°23' E 139°40'0 0.4
2014-Oct-21 15:33N 35°22' E 139°40'1211.8
2014-Oct-21 14:31N 35°11' E 139°47'4 0.1
2014-Oct-20 08:28N 35°15' E 139°46'1010.8
2014-Oct-20 07:33N 35°25' E 139°44'1211.5
2014-Oct-20 06:31N 35°32' E 139°56'8 1.2
2014-Oct-19 23:26N 35°36' E 140°05'5 4.6
2014-Oct-19 22:25N 35°33' E 140°01'0 0.0
2014-Oct-19 21:33N 35°33' E 140°01'7 7.2
2014-Oct-19 20:33N 35°29' E 139°53'1111.4
2014-Oct-19 19:33N 35°20' E 139°45'1110.7
2014-Oct-19 18:33N 35°10' E 139°46'5 0.1
2014-Oct-18 05:21N 35°14' E 139°46'911.8
2014-Oct-18 04:33N 35°23' E 139°42'1211.7
2014-Oct-18 03:32N 35°31' E 139°54'6 1.2
2014-Oct-17 22:17N 35°33' E 140°01'0 0.1
2014-Oct-17 21:31N 35°33' E 140°01'0 0.1
2014-Oct-17 20:32N 35°33' E 140°01'0 0.0
2014-Oct-17 19:27N 35°33' E 140°01'0 0.0
2014-Oct-17 18:27N 35°33' E 140°01'0 0.0
2014-Oct-17 17:33N 35°33' E 140°01'5 2.1
2014-Oct-17 15:11N 35°31' E 139°56'711.5
2014-Oct-17 14:33N 35°26' E 139°49'10 9.9
2014-Oct-17 13:33N 35°17' E 139°46'1 0.0
2014-Oct-16 07:32N 35°15' E 139°46'1010.3
2014-Oct-16 06:32N 35°26' E 139°45'5 5.3
2014-Oct-16 05:33N 35°29' E 139°49'0 0.0
2014-Oct-16 04:33N 35°29' E 139°49'3 2.5
2014-Oct-16 03:31N 35°31' E 139°52'  

Dump ship's entire track history